createdAt,value
2022-09-12T00:00:10.774Z,12.43
2022-09-12T00:02:37.164Z,12.42
2022-09-12T00:05:04.369Z,12.40
2022-09-12T00:07:30.708Z,12.38
2022-09-12T00:09:57.179Z,12.37
2022-09-12T00:12:23.560Z,12.33
2022-09-12T00:14:49.932Z,12.31
2022-09-12T00:17:16.373Z,12.28
2022-09-12T00:19:42.771Z,12.18
2022-09-12T00:22:09.290Z,11.98
2022-09-12T00:24:35.622Z,11.89
2022-09-12T00:27:01.980Z,11.94
2022-09-12T00:29:28.388Z,11.98
2022-09-12T00:31:54.773Z,12.02
2022-09-12T00:34:21.172Z,12.06
2022-09-12T00:36:47.567Z,12.07
2022-09-12T00:39:17.968Z,12.09
2022-09-12T00:41:44.829Z,12.06
2022-09-12T00:44:37.092Z,12.08
2022-09-12T00:47:11.235Z,12.12
2022-09-12T00:49:49.771Z,12.16
2022-09-12T00:52:23.013Z,12.19
2022-09-12T00:55:14.206Z,12.20
2022-09-12T00:57:49.705Z,12.21
2022-09-12T01:00:19.438Z,12.21
2022-09-12T01:02:50.770Z,12.19
2022-09-12T01:05:18.271Z,12.18
2022-09-12T01:07:48.420Z,12.12
2022-09-12T01:10:17.273Z,12.09
2022-09-12T01:12:44.302Z,12.08
2022-09-12T01:15:11.058Z,12.07
2022-09-12T01:18:02.819Z,12.06
2022-09-12T01:20:50.943Z,12.07
2022-09-12T01:23:56.724Z,12.09
2022-09-12T01:27:05.917Z,12.09
2022-09-12T01:29:57.280Z,12.08
2022-09-12T01:32:39.146Z,12.02
2022-09-12T01:35:16.739Z,11.96
2022-09-12T01:37:51.492Z,11.94
2022-09-12T01:40:29.683Z,11.92
2022-09-12T01:43:10.207Z,11.89
2022-09-12T01:45:58.191Z,11.86
2022-09-12T01:48:35.970Z,11.85
2022-09-12T01:51:20.935Z,11.82
2022-09-12T01:54:01.907Z,11.82
2022-09-12T01:56:33.000Z,11.78
2022-09-12T01:59:06.064Z,11.72
2022-09-12T02:01:36.423Z,11.67
2022-09-12T02:04:17.430Z,11.60
2022-09-12T02:06:49.682Z,11.58
2022-09-12T02:09:19.861Z,11.56
2022-09-12T02:11:48.096Z,11.53
2022-09-12T02:14:28.249Z,11.49
2022-09-12T02:16:59.969Z,11.46
2022-09-12T02:19:34.454Z,11.45
2022-09-12T02:22:04.648Z,11.45
2022-09-12T02:24:39.306Z,11.50
2022-09-12T02:27:16.572Z,11.51
2022-09-12T02:29:44.879Z,11.50
2022-09-12T02:32:38.142Z,11.48
2022-09-12T02:35:33.737Z,11.43
2022-09-12T02:38:14.287Z,11.44
2022-09-12T02:40:41.261Z,11.43
2022-09-12T02:43:07.819Z,11.42
2022-09-12T02:45:35.793Z,11.42
2022-09-12T02:48:14.976Z,11.37
2022-09-12T02:50:42.046Z,11.32
2022-09-12T02:53:10.605Z,11.26
2022-09-12T02:55:39.921Z,11.22
2022-09-12T02:58:11.874Z,11.16
2022-09-12T03:00:48.486Z,11.16
2022-09-12T03:03:26.791Z,11.22
2022-09-12T03:06:00.262Z,11.30
2022-09-12T03:08:52.866Z,11.32
2022-09-12T03:11:30.896Z,11.29
2022-09-12T03:14:25.059Z,11.25
2022-09-12T03:17:13.321Z,11.30
2022-09-12T03:20:00.544Z,11.30
2022-09-12T03:22:53.796Z,11.32
2022-09-12T03:25:28.477Z,11.33
2022-09-12T03:28:07.511Z,11.36
2022-09-12T03:30:40.636Z,11.40
2022-09-12T03:33:11.460Z,11.43
2022-09-12T03:35:38.233Z,11.40
2022-09-12T03:38:05.132Z,11.38
2022-09-12T03:40:31.498Z,11.37
2022-09-12T03:42:57.880Z,11.35
2022-09-12T03:45:24.218Z,11.32
2022-09-12T03:47:50.699Z,11.29
2022-09-12T03:50:17.489Z,11.25
2022-09-12T03:52:43.870Z,11.25
2022-09-12T03:55:10.944Z,11.30
2022-09-12T03:57:37.334Z,11.32
2022-09-12T04:00:06.469Z,11.32
2022-09-12T04:02:32.928Z,11.30
2022-09-12T04:04:59.372Z,11.25
2022-09-12T04:07:25.893Z,11.21
2022-09-12T04:09:53.183Z,11.12
2022-09-12T04:12:20.413Z,11.00
2022-09-12T04:14:46.742Z,11.03
2022-09-12T04:17:14.213Z,11.04
2022-09-12T04:19:40.576Z,11.10
2022-09-12T04:22:06.985Z,11.18
2022-09-12T04:24:33.452Z,11.23
2022-09-12T04:26:59.795Z,11.21
2022-09-12T04:29:26.318Z,11.20
2022-09-12T04:31:52.880Z,11.20
2022-09-12T04:34:19.462Z,11.18
2022-09-12T04:36:45.808Z,11.18
2022-09-12T04:39:12.374Z,11.21
2022-09-12T04:41:40.467Z,11.25
2022-09-12T04:44:11.546Z,11.27
2022-09-12T04:46:40.321Z,11.34
2022-09-12T04:49:07.338Z,11.36
2022-09-12T04:51:35.936Z,11.37
2022-09-12T04:54:06.193Z,11.41
2022-09-12T04:56:34.330Z,11.44
2022-09-12T04:59:01.356Z,11.50
2022-09-12T05:01:29.750Z,11.59
2022-09-12T05:03:57.702Z,11.67
2022-09-12T05:06:27.168Z,11.71
2022-09-12T05:08:53.751Z,11.77
2022-09-12T05:11:26.592Z,11.81
2022-09-12T05:13:56.877Z,11.86
2022-09-12T05:16:26.579Z,11.92
2022-09-12T05:18:53.235Z,11.98
2022-09-12T05:21:21.671Z,12.05
2022-09-12T05:23:51.476Z,12.11
2022-09-12T05:26:20.448Z,12.17
2022-09-12T05:28:48.566Z,12.24
2022-09-12T05:31:17.978Z,12.33
2022-09-12T05:33:47.581Z,12.56
2022-09-12T05:36:17.731Z,12.76
2022-09-12T05:38:44.821Z,12.77
2022-09-12T05:41:26.067Z,12.68
2022-09-12T05:43:54.828Z,12.61
2022-09-12T05:46:25.664Z,12.56
2022-09-12T05:48:56.298Z,12.56
2022-09-12T05:51:28.405Z,12.56
2022-09-12T05:53:59.934Z,12.56
2022-09-12T05:56:29.240Z,12.55
2022-09-12T05:58:59.098Z,12.55
2022-09-12T06:01:27.105Z,12.55
2022-09-12T06:03:55.788Z,12.57
2022-09-12T06:06:24.472Z,12.59
2022-09-12T06:08:53.247Z,12.59
2022-09-12T06:11:23.061Z,12.60
2022-09-12T06:13:50.955Z,12.62
2022-09-12T06:16:19.568Z,12.66
2022-09-12T06:18:50.924Z,12.69
2022-09-12T06:21:17.753Z,12.74
2022-09-12T06:23:46.270Z,12.79
2022-09-12T06:26:13.005Z,12.87
2022-09-12T06:28:41.621Z,12.92
2022-09-12T06:31:11.671Z,13.00
2022-09-12T06:33:40.858Z,13.13
2022-09-12T06:36:12.935Z,13.28
2022-09-12T06:38:40.284Z,13.47
2022-09-12T06:41:08.957Z,14.23
2022-09-12T06:43:35.388Z,16.41
2022-09-12T06:46:02.274Z,17.46
2022-09-12T06:48:29.347Z,16.68
2022-09-12T06:51:07.590Z,15.99
2022-09-12T06:53:34.477Z,15.56
2022-09-12T06:56:18.261Z,16.47
2022-09-12T06:58:46.906Z,17.51
2022-09-12T07:01:15.787Z,18.05
2022-09-12T07:03:46.869Z,19.27
2022-09-12T07:06:14.860Z,20.07
2022-09-12T07:08:41.479Z,20.71
2022-09-12T07:11:23.867Z,21.62
2022-09-12T07:13:52.892Z,22.38
2022-09-12T07:16:20.262Z,22.80
2022-09-12T07:18:55.031Z,22.73
2022-09-12T07:21:21.735Z,22.36
2022-09-12T07:23:48.866Z,21.81
2022-09-12T07:26:16.594Z,21.02
2022-09-12T07:28:43.054Z,20.29
2022-09-12T07:31:12.652Z,21.27
2022-09-12T07:33:39.994Z,22.48
2022-09-12T07:36:10.679Z,22.92
2022-09-12T07:38:38.190Z,23.28
2022-09-12T07:41:15.480Z,23.18
2022-09-12T07:43:43.977Z,23.64
2022-09-12T07:46:10.736Z,23.92
2022-09-12T07:48:38.319Z,23.86
2022-09-12T07:51:10.007Z,24.40
2022-09-12T07:53:41.581Z,24.42
2022-09-12T07:56:10.375Z,24.08
2022-09-12T07:58:38.811Z,22.90
2022-09-12T08:01:09.033Z,22.15
2022-09-12T08:03:36.296Z,21.64
2022-09-12T08:06:06.822Z,21.19
2022-09-12T08:08:33.651Z,20.97
2022-09-12T08:11:01.471Z,20.83
2022-09-12T08:13:28.872Z,20.95
2022-09-12T08:16:00.101Z,20.82
2022-09-12T08:18:28.240Z,20.80
2022-09-12T08:21:02.510Z,20.88
2022-09-12T08:23:29.533Z,20.66
2022-09-12T08:26:06.185Z,20.48
2022-09-12T08:28:35.172Z,20.43
2022-09-12T08:31:06.691Z,20.44
2022-09-12T08:33:34.074Z,20.63
2022-09-12T08:36:22.632Z,20.79
2022-09-12T08:38:56.319Z,21.05
2022-09-12T08:41:46.773Z,21.08
2022-09-12T08:44:47.528Z,21.14
2022-09-12T08:47:40.097Z,21.14
2022-09-12T08:50:12.813Z,21.26
2022-09-12T08:52:47.900Z,21.44
2022-09-12T08:55:27.947Z,21.54
2022-09-12T08:57:54.539Z,21.66
2022-09-12T09:00:21.890Z,21.70
2022-09-12T09:03:19.919Z,21.82
2022-09-12T09:06:07.037Z,21.78
2022-09-12T09:08:50.931Z,22.00
2022-09-12T09:11:48.245Z,22.05
2022-09-12T09:14:50.705Z,21.88
2022-09-12T09:17:25.226Z,21.90
2022-09-12T09:20:02.667Z,22.02
2022-09-12T09:22:55.389Z,22.04
2022-09-12T09:26:00.394Z,22.19
2022-09-12T09:28:34.234Z,22.35
2022-09-12T09:31:02.008Z,22.39
2022-09-12T09:33:33.761Z,22.37
2022-09-12T09:36:25.848Z,22.36
2022-09-12T09:38:55.240Z,22.42
2022-09-12T09:41:24.503Z,22.44
2022-09-12T09:43:51.183Z,22.44
2022-09-12T09:46:18.154Z,22.53
2022-09-12T09:48:47.751Z,22.62
2022-09-12T09:51:16.960Z,22.63
2022-09-12T09:53:48.791Z,22.60
2022-09-12T09:56:34.720Z,22.64
2022-09-12T09:59:26.816Z,22.60
2022-09-12T10:01:56.736Z,22.69
2022-09-12T10:04:29.420Z,22.74
2022-09-12T10:07:01.619Z,22.76
2022-09-12T10:09:33.468Z,22.78
2022-09-12T10:12:02.147Z,22.74
2022-09-12T10:14:41.476Z,22.92
2022-09-12T10:17:48.619Z,23.09
2022-09-12T10:20:36.280Z,22.96
2022-09-12T10:23:37.315Z,23.08
2022-09-12T10:26:09.918Z,23.31
2022-09-12T10:28:40.113Z,23.38
2022-09-12T10:31:13.832Z,23.50
2022-09-12T10:33:46.388Z,23.57
2022-09-12T10:36:13.495Z,23.48
2022-09-12T10:38:49.535Z,23.52
2022-09-12T10:41:16.032Z,23.57
2022-09-12T10:43:42.511Z,23.48
2022-09-12T10:46:14.938Z,23.43
2022-09-12T10:48:42.294Z,23.62
2022-09-12T10:51:23.874Z,23.78
2022-09-12T10:53:53.457Z,23.72
2022-09-12T10:56:31.903Z,23.84
2022-09-12T10:59:34.284Z,23.83
2022-09-12T11:02:00.656Z,23.90
2022-09-12T11:04:58.275Z,23.90
2022-09-12T11:08:03.313Z,23.99
2022-09-12T11:10:46.568Z,24.09
2022-09-12T11:13:40.638Z,24.05
2022-09-12T11:16:13.505Z,24.04
2022-09-12T11:19:03.270Z,24.12
2022-09-12T11:21:50.726Z,24.35
2022-09-12T11:24:38.123Z,24.48
2022-09-12T11:27:22.900Z,24.46
2022-09-12T11:29:59.163Z,24.64
2022-09-12T11:32:47.580Z,24.82
2022-09-12T11:35:29.558Z,24.88
2022-09-12T11:38:37.518Z,24.84
2022-09-12T11:41:08.254Z,24.92
2022-09-12T11:43:40.894Z,24.98
2022-09-12T11:46:21.260Z,25.07
2022-09-12T11:49:01.014Z,25.17
2022-09-12T11:51:37.290Z,24.98
2022-09-12T11:54:14.238Z,24.96
2022-09-12T11:56:46.223Z,25.11
2022-09-12T11:59:25.736Z,25.13
2022-09-12T12:01:59.590Z,25.10
2022-09-12T12:04:36.962Z,25.16
2022-09-12T12:07:07.448Z,25.14
2022-09-12T12:09:34.538Z,25.21
2022-09-12T12:12:06.919Z,25.22
2022-09-12T12:14:43.196Z,25.02
2022-09-12T12:17:15.587Z,25.08
2022-09-12T12:19:42.615Z,24.91
2022-09-12T12:22:24.127Z,25.12
2022-09-12T12:25:03.560Z,25.02
2022-09-12T12:27:51.154Z,24.89
2022-09-12T12:30:29.772Z,25.14
2022-09-12T12:33:22.240Z,25.42
2022-09-12T12:35:57.694Z,25.52
2022-09-12T12:38:40.805Z,25.44
2022-09-12T12:41:16.348Z,25.54
2022-09-12T12:43:53.628Z,25.59
2022-09-12T12:46:22.390Z,25.46
2022-09-12T12:49:31.142Z,25.54
2022-09-12T12:52:01.551Z,25.50
2022-09-12T12:54:33.312Z,25.64
2022-09-12T12:57:15.039Z,25.62
2022-09-12T12:59:54.587Z,25.77
2022-09-12T13:02:26.266Z,25.72
2022-09-12T13:04:54.479Z,25.72
2022-09-12T13:07:29.989Z,25.61
2022-09-12T13:09:57.888Z,25.70
2022-09-12T13:12:29.978Z,25.69
2022-09-12T13:14:59.326Z,25.49
2022-09-12T13:17:34.358Z,25.49
2022-09-12T13:20:34.552Z,25.63
2022-09-12T13:23:01.268Z,25.85
2022-09-12T13:25:33.536Z,25.90
2022-09-12T13:28:09.520Z,25.99
2022-09-12T13:30:39.209Z,26.01
2022-09-12T13:33:31.109Z,25.97
2022-09-12T13:36:14.171Z,25.77
2022-09-12T13:38:53.136Z,25.91
2022-09-12T13:41:36.839Z,25.91
2022-09-12T13:44:09.689Z,25.77
2022-09-12T13:46:36.607Z,25.69
2022-09-12T13:49:19.107Z,25.77
2022-09-12T13:51:45.602Z,25.78
2022-09-12T13:54:21.405Z,25.67
2022-09-12T13:56:50.950Z,25.70
2022-09-12T13:59:17.521Z,25.80
2022-09-12T14:01:46.387Z,25.92
2022-09-12T14:04:40.738Z,26.13
2022-09-12T14:07:20.872Z,26.28
2022-09-12T14:09:55.881Z,26.35
2022-09-12T14:12:22.207Z,26.39
2022-09-12T14:14:50.883Z,26.35
2022-09-12T14:17:23.435Z,26.35
2022-09-12T14:19:52.760Z,26.34
2022-09-12T14:22:19.354Z,26.27
2022-09-12T14:24:51.588Z,26.38
2022-09-12T14:27:28.429Z,26.22
2022-09-12T14:30:09.047Z,26.25
2022-09-12T14:32:36.063Z,26.34
2022-09-12T14:35:13.328Z,26.21
2022-09-12T14:37:40.159Z,26.19
2022-09-12T14:40:19.595Z,26.18
2022-09-12T14:42:49.511Z,26.16
2022-09-12T14:45:29.456Z,26.37
2022-09-12T14:47:56.721Z,26.28
2022-09-12T14:50:26.500Z,26.16
2022-09-12T14:53:07.123Z,26.41
2022-09-12T14:55:42.296Z,26.55
2022-09-12T14:58:20.810Z,26.59
2022-09-12T15:01:01.798Z,26.49
2022-09-12T15:03:30.160Z,26.27
2022-09-12T15:05:57.809Z,26.20
2022-09-12T15:08:25.435Z,26.03
2022-09-12T15:10:52.112Z,26.10
2022-09-12T15:13:21.697Z,26.13
2022-09-12T15:15:59.150Z,26.23
2022-09-12T15:18:28.894Z,26.14
2022-09-12T15:21:00.845Z,26.14
2022-09-12T15:23:33.051Z,26.01
2022-09-12T15:26:00.167Z,25.97
2022-09-12T15:28:27.235Z,25.70
2022-09-12T15:30:55.440Z,25.55
2022-09-12T15:33:24.686Z,25.61
2022-09-12T15:35:52.428Z,25.60
2022-09-12T15:38:23.030Z,25.68
2022-09-12T15:40:53.932Z,25.75
2022-09-12T15:43:22.128Z,25.69
2022-09-12T15:45:51.479Z,25.80
2022-09-12T15:48:18.937Z,25.67
2022-09-12T15:50:45.492Z,25.55
2022-09-12T15:53:16.575Z,25.60
2022-09-12T15:55:43.569Z,25.83
2022-09-12T15:58:10.528Z,25.95
2022-09-12T16:00:36.900Z,26.11
2022-09-12T16:03:03.922Z,26.09
2022-09-12T16:05:30.355Z,26.10
2022-09-12T16:07:56.749Z,25.93
2022-09-12T16:10:27.729Z,25.91
2022-09-12T16:12:54.643Z,25.85
2022-09-12T16:15:23.868Z,25.69
2022-09-12T16:17:50.873Z,25.59
2022-09-12T16:20:18.758Z,25.54
2022-09-12T16:22:45.615Z,25.49
2022-09-12T16:25:12.054Z,25.42
2022-09-12T16:27:38.592Z,25.36
2022-09-12T16:30:07.130Z,25.18
2022-09-12T16:32:33.643Z,25.01
2022-09-12T16:35:00.018Z,24.93
2022-09-12T16:37:26.353Z,24.90
2022-09-12T16:39:53.653Z,24.71
2022-09-12T16:42:20.331Z,24.66
2022-09-12T16:44:48.372Z,24.61
2022-09-12T16:47:16.045Z,24.51
2022-09-12T16:49:42.661Z,24.41
2022-09-12T16:52:09.230Z,24.32
2022-09-12T16:54:36.076Z,24.26
2022-09-12T16:57:05.085Z,24.16
2022-09-12T16:59:31.470Z,24.03
2022-09-12T17:01:57.883Z,23.93
2022-09-12T17:04:24.571Z,23.88
2022-09-12T17:06:51.383Z,23.84
2022-09-12T17:09:18.626Z,23.77
2022-09-12T17:11:50.283Z,23.59
2022-09-12T17:14:16.913Z,23.51
2022-09-12T17:16:50.755Z,23.45
2022-09-12T17:19:28.012Z,23.35
2022-09-12T17:21:54.740Z,23.25
2022-09-12T17:24:21.710Z,23.14
2022-09-12T17:26:48.142Z,23.08
2022-09-12T17:29:15.529Z,22.97
2022-09-12T17:31:43.255Z,22.76
2022-09-12T17:34:10.006Z,22.64
2022-09-12T17:36:36.546Z,22.59
2022-09-12T17:39:04.130Z,22.52
2022-09-12T17:41:31.900Z,22.46
2022-09-12T17:43:59.754Z,22.39
2022-09-12T17:46:32.792Z,22.31
2022-09-12T17:49:00.894Z,22.23
2022-09-12T17:51:30.710Z,22.05
2022-09-12T17:54:03.459Z,21.89
2022-09-12T17:56:32.324Z,21.77
2022-09-12T17:59:00.024Z,21.66
2022-09-12T18:01:47.155Z,21.60
2022-09-12T18:04:14.692Z,21.50
2022-09-12T18:06:47.662Z,21.39
2022-09-12T18:09:19.274Z,21.22
2022-09-12T18:11:46.053Z,20.95
2022-09-12T18:14:14.343Z,20.77
2022-09-12T18:16:41.716Z,20.60
2022-09-12T18:19:08.185Z,20.58
2022-09-12T18:21:34.827Z,20.60
2022-09-12T18:24:01.508Z,20.63
2022-09-12T18:26:29.157Z,20.62
2022-09-12T18:28:56.188Z,20.60
2022-09-12T18:31:25.254Z,20.55
2022-09-12T18:33:51.998Z,20.48
2022-09-12T18:36:19.589Z,20.39
2022-09-12T18:38:46.066Z,20.33
2022-09-12T18:41:15.034Z,20.27
2022-09-12T18:43:41.710Z,20.22
2022-09-12T18:46:12.217Z,20.17
2022-09-12T18:48:39.007Z,20.12
2022-09-12T18:51:21.016Z,20.02
2022-09-12T18:53:52.923Z,19.88
2022-09-12T18:56:19.997Z,19.85
2022-09-12T18:58:50.830Z,19.71
2022-09-12T19:01:20.548Z,19.64
2022-09-12T19:03:47.458Z,19.62
2022-09-12T19:06:19.828Z,19.52
2022-09-12T19:08:46.428Z,19.29
2022-09-12T19:11:13.143Z,19.17
2022-09-12T19:13:42.049Z,19.16
2022-09-12T19:16:12.148Z,19.14
2022-09-12T19:18:40.027Z,19.04
2022-09-12T19:21:08.914Z,18.90
2022-09-12T19:23:36.223Z,18.84
2022-09-12T19:26:05.600Z,18.77
2022-09-12T19:28:32.683Z,18.75
2022-09-12T19:30:59.210Z,18.69
2022-09-12T19:33:25.902Z,18.62
2022-09-12T19:35:52.419Z,18.59
2022-09-12T19:38:19.078Z,18.49
2022-09-12T19:40:55.805Z,18.51
2022-09-12T19:43:22.216Z,18.55
2022-09-12T19:45:48.557Z,18.61
2022-09-12T19:48:15.052Z,18.64
2022-09-12T19:50:41.491Z,18.65
2022-09-12T19:53:08.199Z,18.66
2022-09-12T19:55:35.486Z,18.67
2022-09-12T19:58:02.256Z,18.66
2022-09-12T20:00:28.774Z,18.68
2022-09-12T20:02:55.302Z,18.69
2022-09-12T20:05:21.701Z,18.71
2022-09-12T20:07:48.339Z,18.70
2022-09-12T20:10:15.314Z,18.69
2022-09-12T20:12:42.228Z,18.66
2022-09-12T20:15:09.120Z,18.61
2022-09-12T20:17:36.228Z,18.54
2022-09-12T20:20:03.098Z,18.52
2022-09-12T20:22:29.464Z,18.52
2022-09-12T20:24:55.873Z,18.46
2022-09-12T20:27:22.248Z,18.34
2022-09-12T20:29:48.596Z,18.31
2022-09-12T20:32:14.974Z,18.24
2022-09-12T20:34:41.331Z,18.23
2022-09-12T20:37:07.890Z,18.22
2022-09-12T20:39:34.412Z,18.19
2022-09-12T20:42:00.748Z,18.16
2022-09-12T20:44:27.511Z,18.12
2022-09-12T20:46:54.060Z,18.04
2022-09-12T20:49:20.857Z,17.97
2022-09-12T20:51:48.469Z,17.96
2022-09-12T20:54:14.860Z,17.96
2022-09-12T20:56:41.228Z,17.97
2022-09-12T20:59:08.163Z,17.99
2022-09-12T21:01:34.796Z,18.00
2022-09-12T21:04:02.163Z,18.02
2022-09-12T21:06:28.675Z,18.02
2022-09-12T21:08:59.560Z,18.04
2022-09-12T21:11:27.371Z,18.04
2022-09-12T21:13:54.801Z,18.03
2022-09-12T21:16:22.837Z,17.99
2022-09-12T21:18:58.237Z,17.97
2022-09-12T21:21:25.856Z,17.95
2022-09-12T21:23:54.052Z,17.94
2022-09-12T21:26:20.888Z,17.93
2022-09-12T21:28:48.308Z,17.93
2022-09-12T21:31:14.726Z,17.94
2022-09-12T21:33:41.179Z,17.94
2022-09-12T21:36:08.633Z,17.95
2022-09-12T21:38:35.096Z,17.96
2022-09-12T21:41:10.276Z,17.97
2022-09-12T21:43:37.626Z,17.97
2022-09-12T21:46:05.732Z,17.98
2022-09-12T21:48:32.723Z,17.98
2022-09-12T21:50:59.986Z,17.96
2022-09-12T21:53:26.629Z,17.93
2022-09-12T21:55:53.343Z,17.92
2022-09-12T21:58:19.819Z,17.90
2022-09-12T22:00:46.450Z,17.91
2022-09-12T22:03:12.938Z,17.91
2022-09-12T22:05:43.099Z,17.91
2022-09-12T22:08:10.760Z,17.91
2022-09-12T22:10:38.482Z,17.92
2022-09-12T22:13:05.422Z,17.92
2022-09-12T22:15:40.898Z,17.93
2022-09-12T22:18:07.680Z,17.94
2022-09-12T22:20:34.020Z,17.95
2022-09-12T22:23:23.802Z,17.95
2022-09-12T22:25:55.212Z,17.96
2022-09-12T22:28:22.109Z,17.97
2022-09-12T22:30:48.658Z,17.96
2022-09-12T22:33:15.368Z,17.93
2022-09-12T22:35:42.539Z,17.91
2022-09-12T22:38:09.361Z,17.92
2022-09-12T22:40:35.756Z,17.92
2022-09-12T22:43:02.280Z,17.90
2022-09-12T22:45:28.835Z,17.89
2022-09-12T22:47:56.391Z,17.89
2022-09-12T22:50:25.574Z,17.89
2022-09-12T22:52:52.615Z,17.90
2022-09-12T22:55:19.186Z,17.93
2022-09-12T22:57:45.530Z,17.91
2022-09-12T23:00:12.637Z,17.85
2022-09-12T23:02:39.015Z,17.84
2022-09-12T23:05:06.079Z,17.85
2022-09-12T23:07:33.451Z,17.84
2022-09-12T23:09:59.916Z,17.86
2022-09-12T23:12:26.281Z,17.86
2022-09-12T23:14:52.718Z,17.86
2022-09-12T23:17:19.056Z,17.85
2022-09-12T23:19:45.463Z,17.85
2022-09-12T23:22:11.830Z,17.83
2022-09-12T23:24:38.375Z,17.83
2022-09-12T23:27:05.175Z,17.83
2022-09-12T23:29:34.299Z,17.82
2022-09-12T23:32:02.222Z,17.81
2022-09-12T23:34:29.154Z,17.77
2022-09-12T23:36:56.375Z,17.75
2022-09-12T23:39:23.354Z,17.73
2022-09-12T23:41:50.569Z,17.76
2022-09-12T23:44:16.952Z,17.77
2022-09-12T23:46:43.359Z,17.76
2022-09-12T23:49:09.770Z,17.74
2022-09-12T23:51:36.131Z,17.73
2022-09-12T23:54:02.704Z,17.73
2022-09-12T23:56:29.072Z,17.68
2022-09-12T23:58:55.469Z,17.66
